Startpagina
METAR-TAF:

METAR-TAF

Vliegvelden :

Beiroet, Libanon

breedte: 33-49N, lengte: 035-29E, hoogte: 29 m

Actueel weer

Dit bericht is 26 minuten geleden gemaakt, om 18:00 UTC
Wind 4 kt uit het zuidoosten, variërend tussen het oosten en het zuidzuidoosten
Temperatuur 17°C
Vochtigheid 52%
Druk 1010 hPa
Zicht 10 km of meer
Gebroken wolken op 20000 ft

METAR: OLBA 231800Z 14004KT 090V160 9999 BKN200 17/07 Q1010 NOSIG

Tijdstip: 20:26 (18:26 UTC)

Verwachting

Dit bericht is 2 uur en het 26 minuten geleden gemaakt, om 16:00 UTC
Verwachting geldig van 23 om 18 UTC tot 24 om 24 UTC
Wind 4 kt uit het zuidzuidoosten
Zicht: 8000 m
Verspreide wolken op 2600 ft
Kans 30% :
Tijdelijke
van 24 om 02 UTC tot 24 om 18 UTC
lichte regen
Wijzigt naar
van 24 om 06 UTC tot 24 om 08 UTC
Wind 12 kt uit het westzuidwesten
Wijzigt naar
van 24 om 18 UTC tot 24 om 20 UTC
Wind 4 kt uit het zuidzuidoosten

TAF: OLBA 231600Z 2318/2424 15004KT 8000 SCT026 PROB30 TEMPO 2402/2418 -RA BECMG 2406/2408 24012KT BECMG 2418/2420 16004KT

Waarnemingen en weersverwachtingen van meer dan 4000 vliegvelden (METAR en TAF).

De beschikbare stations zijn de gele en rode punten op de kaart.

Ga met uw muis naar het station om de naam te zien.

Klik dan om waarnemingen en weersverwachtingen te zien.

kaart wijzigen: klik op de groene knoppen met een zwart kruis om in te zoomen, op de groene knop met een streepje om uit te zoomen of op de groene pijlen voor aangrenzende kaarten.


METAR-TAF: